createdAt,value
2023-10-15T00:01:51.403Z,0.90
2023-10-15T00:04:20.746Z,1.07
2023-10-15T00:06:50.322Z,1.57
2023-10-15T00:09:19.790Z,0.90
2023-10-15T00:11:49.341Z,0.80
2023-10-15T00:14:18.605Z,1.37
2023-10-15T00:16:49.613Z,1.30
2023-10-15T00:19:20.846Z,0.73
2023-10-15T00:21:50.442Z,1.00
2023-10-15T00:24:19.678Z,1.03
2023-10-15T00:26:50.906Z,0.90
2023-10-15T00:29:20.033Z,1.30
2023-10-15T00:31:49.303Z,1.07
2023-10-15T00:34:20.313Z,1.20
2023-10-15T00:36:50.297Z,0.70
2023-10-15T00:39:22.911Z,0.77
2023-10-15T00:41:52.365Z,0.97
2023-10-15T00:44:22.553Z,0.93
2023-10-15T00:46:57.223Z,0.80
2023-10-15T00:49:28.690Z,0.90
2023-10-15T00:52:03.093Z,0.77
2023-10-15T00:54:34.930Z,0.87
2023-10-15T00:57:26.024Z,1.20
2023-10-15T01:00:00.545Z,1.03
2023-10-15T01:02:31.829Z,0.70
2023-10-15T01:05:02.951Z,1.07
2023-10-15T01:07:44.880Z,0.87
2023-10-15T01:10:28.346Z,0.87
2023-10-15T01:12:58.890Z,1.17
2023-10-15T01:15:28.434Z,0.90
2023-10-15T01:18:08.291Z,0.90
2023-10-15T01:20:44.074Z,0.80
2023-10-15T01:23:29.990Z,0.60
2023-10-15T01:26:01.024Z,1.03
2023-10-15T01:28:38.563Z,0.90
2023-10-15T01:31:07.988Z,0.60
2023-10-15T01:33:47.859Z,0.60
2023-10-15T01:36:19.578Z,1.30
2023-10-15T01:38:52.162Z,0.70
2023-10-15T01:41:26.410Z,0.63
2023-10-15T01:43:58.039Z,0.40
2023-10-15T01:46:41.988Z,0.63
2023-10-15T01:49:11.360Z,0.30
2023-10-15T01:51:41.651Z,0.77
2023-10-15T01:54:11.360Z,0.60
2023-10-15T01:56:41.646Z,0.50
2023-10-15T01:59:10.701Z,0.57
2023-10-15T02:01:42.494Z,0.70
2023-10-15T02:04:25.005Z,0.90
2023-10-15T02:06:54.134Z,0.50
2023-10-15T02:09:24.152Z,0.77
2023-10-15T02:11:55.917Z,0.60
2023-10-15T02:14:28.815Z,0.63
2023-10-15T02:17:01.588Z,0.47
2023-10-15T02:19:36.386Z,0.40
2023-10-15T02:22:08.522Z,0.40
2023-10-15T02:24:37.371Z,0.40
2023-10-15T02:27:07.667Z,0.90
2023-10-15T02:29:43.320Z,0.70
2023-10-15T02:32:23.560Z,0.37
2023-10-15T02:34:53.344Z,0.27
2023-10-15T02:37:25.289Z,0.30
2023-10-15T02:39:54.385Z,0.50
2023-10-15T02:42:32.165Z,0.53
2023-10-15T02:45:02.687Z,0.20
2023-10-15T02:47:33.139Z,0.70
2023-10-15T02:50:05.166Z,0.57
2023-10-15T02:52:47.281Z,0.67
2023-10-15T02:55:29.078Z,0.47
2023-10-15T02:58:04.066Z,0.60
2023-10-15T03:00:34.257Z,0.77
2023-10-15T03:03:09.137Z,0.50
2023-10-15T03:05:42.114Z,0.90
2023-10-15T03:08:19.176Z,0.87
2023-10-15T03:10:48.953Z,0.77
2023-10-15T03:13:19.905Z,0.60
2023-10-15T03:15:51.627Z,0.80
2023-10-15T03:18:24.825Z,0.43
2023-10-15T03:21:11.089Z,0.70
2023-10-15T03:23:41.238Z,0.47
2023-10-15T03:26:18.794Z,0.40
2023-10-15T03:28:52.877Z,0.50
2023-10-15T03:31:26.597Z,0.50
2023-10-15T03:34:14.840Z,0.63
2023-10-15T03:36:50.448Z,0.40
2023-10-15T03:39:25.955Z,0.50
2023-10-15T03:41:56.068Z,0.97
2023-10-15T03:44:29.126Z,0.50
2023-10-15T03:47:05.774Z,0.50
2023-10-15T03:49:34.728Z,0.57
2023-10-15T03:52:08.919Z,0.53
2023-10-15T03:54:39.219Z,0.63
2023-10-15T03:57:09.631Z,0.70
2023-10-15T03:59:45.910Z,0.47
2023-10-15T04:02:24.179Z,0.63
2023-10-15T04:05:02.240Z,0.40
2023-10-15T04:07:38.255Z,0.30
2023-10-15T04:10:07.482Z,0.43
2023-10-15T04:12:37.138Z,0.57
2023-10-15T04:15:16.030Z,0.50
2023-10-15T04:17:49.653Z,0.30
2023-10-15T04:20:27.007Z,0.40
2023-10-15T04:22:56.136Z,0.80
2023-10-15T04:25:28.369Z,0.50
2023-10-15T04:27:57.541Z,0.70
2023-10-15T04:30:27.852Z,0.87
2023-10-15T04:32:58.556Z,0.43
2023-10-15T04:35:31.453Z,0.57
2023-10-15T04:38:01.099Z,0.60
2023-10-15T04:40:29.941Z,0.60
2023-10-15T04:43:01.590Z,0.60
2023-10-15T04:45:41.879Z,0.37
2023-10-15T04:48:16.674Z,0.50
2023-10-15T04:50:46.762Z,0.80
2023-10-15T04:53:25.541Z,0.30
2023-10-15T04:55:55.378Z,0.47
2023-10-15T04:58:28.994Z,0.47
2023-10-15T05:01:01.702Z,1.00
2023-10-15T05:03:32.864Z,0.23
2023-10-15T05:06:05.189Z,0.50
2023-10-15T05:08:36.534Z,0.40
2023-10-15T05:11:07.619Z,0.90
2023-10-15T05:13:36.813Z,0.73
2023-10-15T05:16:07.587Z,0.90
2023-10-15T05:18:36.546Z,0.50
2023-10-15T05:21:05.353Z,0.83
2023-10-15T05:23:36.468Z,1.03
2023-10-15T05:26:05.718Z,1.00
2023-10-15T05:28:34.623Z,0.30
2023-10-15T05:31:03.786Z,1.03
2023-10-15T05:33:34.420Z,1.07
2023-10-15T05:36:03.505Z,0.70
2023-10-15T05:38:32.474Z,0.70
2023-10-15T05:41:01.461Z,0.80
2023-10-15T05:43:30.605Z,1.43
2023-10-15T05:45:59.518Z,1.33
2023-10-15T05:48:28.335Z,0.50
2023-10-15T05:50:58.798Z,0.60
2023-10-15T05:53:28.001Z,0.77
2023-10-15T05:55:58.426Z,1.00
2023-10-15T05:58:27.588Z,0.77
2023-10-15T06:00:56.501Z,0.83
2023-10-15T06:03:25.502Z,0.50
2023-10-15T06:06:02.081Z,0.90
2023-10-15T06:08:31.368Z,0.63
2023-10-15T06:11:00.247Z,0.60
2023-10-15T06:13:33.490Z,0.90
2023-10-15T06:16:03.656Z,0.90
2023-10-15T06:18:35.153Z,1.27
2023-10-15T06:21:06.131Z,0.57
2023-10-15T06:23:35.079Z,0.60
2023-10-15T06:26:03.979Z,0.57
2023-10-15T06:28:33.323Z,0.97
2023-10-15T06:31:03.235Z,0.63
2023-10-15T06:33:32.136Z,0.83
2023-10-15T06:36:00.925Z,0.43
2023-10-15T06:38:31.817Z,0.73
2023-10-15T06:41:01.838Z,0.60
2023-10-15T06:43:31.031Z,0.80
2023-10-15T06:46:07.558Z,0.70
2023-10-15T06:48:37.177Z,1.23
2023-10-15T06:51:07.953Z,0.77
2023-10-15T06:53:38.255Z,0.63
2023-10-15T06:56:08.204Z,0.90
2023-10-15T06:58:37.731Z,0.77
2023-10-15T07:01:08.768Z,1.27
2023-10-15T07:03:37.944Z,0.83
2023-10-15T07:06:07.979Z,0.70
2023-10-15T07:08:38.363Z,0.70
2023-10-15T07:11:07.330Z,0.90
2023-10-15T07:13:36.944Z,0.70
2023-10-15T07:16:07.451Z,0.80
2023-10-15T07:18:36.730Z,0.87
2023-10-15T07:21:05.663Z,1.00
2023-10-15T07:23:34.710Z,0.73
2023-10-15T07:26:05.447Z,0.93
2023-10-15T07:28:34.594Z,0.43
2023-10-15T07:31:03.730Z,0.90
2023-10-15T07:33:33.082Z,1.03
2023-10-15T07:36:03.345Z,0.60
2023-10-15T07:38:32.882Z,0.63
2023-10-15T07:41:02.150Z,0.70
2023-10-15T07:43:33.117Z,0.80
2023-10-15T07:46:02.151Z,0.50
2023-10-15T07:48:31.273Z,0.47
2023-10-15T07:51:00.839Z,0.70
2023-10-15T07:53:29.691Z,1.10
2023-10-15T07:55:58.771Z,0.90
2023-10-15T07:58:27.740Z,0.97
2023-10-15T08:01:11.163Z,0.70
2023-10-15T08:03:40.882Z,0.80
2023-10-15T08:06:10.352Z,1.00
2023-10-15T08:08:39.539Z,1.23
2023-10-15T08:11:58.881Z,0.50
2023-10-15T08:14:28.104Z,0.53
2023-10-15T08:16:59.041Z,0.83
2023-10-15T08:19:28.072Z,0.40
2023-10-15T08:21:57.373Z,0.70
2023-10-15T08:24:26.899Z,0.80
2023-10-15T08:26:56.068Z,1.35
2023-10-15T08:29:25.020Z,0.50
2023-10-15T08:31:53.894Z,1.15
2023-10-15T08:34:25.102Z,0.60
2023-10-15T08:36:55.824Z,0.47
2023-10-15T08:39:25.484Z,0.82
2023-10-15T08:41:56.521Z,0.80
2023-10-15T08:44:26.364Z,0.60
2023-10-15T08:46:58.147Z,0.65
2023-10-15T08:49:29.328Z,0.60
2023-10-15T08:51:58.927Z,0.70
2023-10-15T08:54:27.997Z,0.93
2023-10-15T08:56:57.396Z,0.88
2023-10-15T08:59:26.379Z,0.70
2023-10-15T09:01:57.953Z,0.88
2023-10-15T09:04:29.258Z,1.00
2023-10-15T09:07:02.542Z,0.70
2023-10-15T09:09:33.905Z,0.43
2023-10-15T09:12:03.235Z,0.50
2023-10-15T09:14:41.927Z,0.70
2023-10-15T09:17:13.061Z,0.65
2023-10-15T09:19:45.224Z,0.95
2023-10-15T09:22:16.823Z,0.40
2023-10-15T09:24:45.983Z,0.70
2023-10-15T09:27:16.439Z,0.80
2023-10-15T09:29:46.551Z,0.70
2023-10-15T09:32:16.768Z,0.73
2023-10-15T09:34:50.064Z,0.68
2023-10-15T09:37:22.472Z,0.70
2023-10-15T09:39:54.719Z,0.75
2023-10-15T09:42:24.301Z,0.70
2023-10-15T09:44:53.525Z,0.90
2023-10-15T09:47:25.771Z,0.70
2023-10-15T09:49:57.967Z,0.70
2023-10-15T09:52:30.681Z,0.82
2023-10-15T09:55:01.337Z,0.90
2023-10-15T09:57:30.874Z,0.90
2023-10-15T10:00:00.566Z,0.70
2023-10-15T10:02:36.054Z,0.98
2023-10-15T10:05:29.097Z,0.43
2023-10-15T10:08:12.369Z,0.70
2023-10-15T10:11:06.175Z,0.70
2023-10-15T10:13:58.901Z,0.70
2023-10-15T10:16:32.640Z,0.80
2023-10-15T10:19:02.686Z,0.65
2023-10-15T10:21:34.813Z,0.38
2023-10-15T10:24:05.374Z,0.82
2023-10-15T10:26:35.565Z,0.80
2023-10-15T10:29:05.308Z,0.60
2023-10-15T10:31:39.082Z,1.65
2023-10-15T10:34:09.376Z,0.60
2023-10-15T10:36:42.744Z,0.68
2023-10-15T10:39:17.028Z,0.50
2023-10-15T10:41:51.649Z,0.88
2023-10-15T10:44:42.231Z,0.70
2023-10-15T10:47:23.365Z,0.75
2023-10-15T10:50:00.973Z,0.43
2023-10-15T10:52:32.669Z,0.70
2023-10-15T10:55:33.684Z,0.60
2023-10-15T10:58:06.327Z,0.65
2023-10-15T11:00:36.736Z,0.70
2023-10-15T11:03:08.786Z,0.88
2023-10-15T11:05:38.516Z,0.80
2023-10-15T11:08:21.798Z,1.50
2023-10-15T11:10:51.795Z,0.40
2023-10-15T11:13:22.124Z,0.65
2023-10-15T11:15:53.542Z,0.63
2023-10-15T11:18:26.583Z,0.88
2023-10-15T11:20:56.739Z,0.73
2023-10-15T11:23:28.722Z,0.40
2023-10-15T11:25:58.379Z,0.80
2023-10-15T11:28:33.555Z,0.60
2023-10-15T11:31:03.651Z,0.63
2023-10-15T11:33:33.072Z,0.68
2023-10-15T11:36:07.734Z,0.80
2023-10-15T11:38:40.402Z,0.77
2023-10-15T11:41:13.823Z,1.13
2023-10-15T11:43:45.346Z,0.80
2023-10-15T11:46:17.835Z,0.60
2023-10-15T11:48:52.735Z,0.60
2023-10-15T11:51:23.761Z,0.63
2023-10-15T11:53:54.908Z,0.75
2023-10-15T11:56:25.104Z,0.60
2023-10-15T11:58:56.147Z,0.70
2023-10-15T12:01:25.726Z,0.57
2023-10-15T12:03:55.470Z,0.67
2023-10-15T12:06:24.844Z,0.57
2023-10-15T12:09:00.611Z,0.77
2023-10-15T12:11:30.604Z,1.37
2023-10-15T12:14:00.211Z,0.57
2023-10-15T12:16:30.046Z,0.60
2023-10-15T12:19:00.263Z,0.63
2023-10-15T12:21:29.582Z,0.90
2023-10-15T12:24:01.490Z,0.60
2023-10-15T12:26:30.737Z,0.60
2023-10-15T12:28:59.894Z,0.87
2023-10-15T12:31:28.891Z,0.40
2023-10-15T12:33:57.990Z,0.70
2023-10-15T12:36:27.689Z,0.50
2023-10-15T12:38:57.604Z,0.50
2023-10-15T12:41:32.058Z,0.60
2023-10-15T12:44:14.332Z,0.50
2023-10-15T12:46:44.893Z,0.63
2023-10-15T12:49:17.528Z,0.50
2023-10-15T12:51:50.296Z,0.35
2023-10-15T12:54:23.720Z,0.40
2023-10-15T12:56:55.463Z,0.60
2023-10-15T12:59:29.781Z,0.50
2023-10-15T13:02:08.529Z,0.60
2023-10-15T13:04:44.370Z,0.73
2023-10-15T13:07:20.324Z,0.30
2023-10-15T13:10:08.716Z,0.43
2023-10-15T13:12:42.210Z,0.50
2023-10-15T13:15:15.099Z,0.70
2023-10-15T13:17:45.931Z,0.50
2023-10-15T13:20:16.183Z,0.53
2023-10-15T13:22:46.945Z,0.70
2023-10-15T13:25:19.157Z,0.90
2023-10-15T13:27:51.624Z,0.67
2023-10-15T13:30:23.976Z,0.40
2023-10-15T13:32:54.617Z,0.60
2023-10-15T13:35:26.422Z,0.70
2023-10-15T13:38:00.074Z,0.40
2023-10-15T13:40:30.091Z,0.53
2023-10-15T13:43:02.636Z,0.50
2023-10-15T13:45:33.330Z,0.47
2023-10-15T13:48:03.633Z,1.00
2023-10-15T13:50:39.548Z,0.70
2023-10-15T13:53:13.729Z,0.73
2023-10-15T13:55:53.344Z,0.50
2023-10-15T13:58:25.109Z,0.70
2023-10-15T14:00:54.934Z,0.80
2023-10-15T14:03:50.153Z,0.80
2023-10-15T14:06:22.969Z,0.77
2023-10-15T14:08:53.245Z,0.53
2023-10-15T14:11:22.771Z,0.70
2023-10-15T14:13:53.212Z,0.70
2023-10-15T14:16:22.362Z,0.70
2023-10-15T14:18:52.933Z,0.70
2023-10-15T14:21:22.443Z,0.80
2023-10-15T14:23:51.569Z,0.50
2023-10-15T14:26:23.641Z,0.97
2023-10-15T14:28:54.638Z,0.70
2023-10-15T14:31:25.776Z,0.60
2023-10-15T14:33:55.668Z,1.73
2023-10-15T14:36:26.857Z,0.70
2023-10-15T14:38:59.227Z,0.63
2023-10-15T14:41:28.449Z,0.70
2023-10-15T14:43:58.933Z,0.83
2023-10-15T14:46:28.188Z,0.63
2023-10-15T14:48:57.304Z,0.60
2023-10-15T14:51:26.261Z,0.80
2023-10-15T14:54:15.066Z,0.60
2023-10-15T14:57:02.712Z,0.90
2023-10-15T14:59:43.939Z,0.60
2023-10-15T15:02:18.926Z,0.93
2023-10-15T15:05:10.048Z,1.13
2023-10-15T15:07:42.134Z,0.80
2023-10-15T15:10:26.370Z,1.10
2023-10-15T15:12:55.869Z,1.40
2023-10-15T15:15:26.588Z,0.60
2023-10-15T15:21:50.531Z,0.70
2023-10-15T15:24:21.190Z,0.80
2023-10-15T15:27:01.409Z,0.80
2023-10-15T15:29:38.570Z,0.90
2023-10-15T15:32:13.380Z,0.50
2023-10-15T15:34:51.130Z,0.60
2023-10-15T15:37:49.800Z,0.60
2023-10-15T15:40:35.580Z,0.70
2023-10-15T15:43:18.951Z,1.07
2023-10-15T15:49:17.384Z,1.13
2023-10-15T15:51:51.962Z,0.90
2023-10-15T15:54:31.356Z,0.80
2023-10-15T15:57:02.183Z,0.50
2023-10-15T15:59:32.011Z,1.10
2023-10-15T16:02:02.982Z,0.50
2023-10-15T16:04:34.712Z,0.50
2023-10-15T16:07:04.889Z,0.67
2023-10-15T16:09:37.034Z,0.90
2023-10-15T16:12:06.758Z,0.60
2023-10-15T16:14:38.861Z,0.90
2023-10-15T16:17:09.370Z,0.60
2023-10-15T16:19:40.844Z,0.60
2023-10-15T16:22:10.558Z,0.50
2023-10-15T16:24:42.775Z,0.77
2023-10-15T16:27:16.989Z,0.77
2023-10-15T16:29:46.095Z,0.50
2023-10-15T16:32:15.309Z,0.70
2023-10-15T16:34:45.948Z,0.63
2023-10-15T16:37:15.216Z,0.70
2023-10-15T16:39:44.368Z,0.70
2023-10-15T16:42:13.898Z,0.40
2023-10-15T16:44:43.511Z,0.70
2023-10-15T16:47:13.607Z,0.50
2023-10-15T16:49:43.195Z,0.90
2023-10-15T16:52:15.306Z,0.73
2023-10-15T16:54:45.247Z,0.67
2023-10-15T16:57:15.115Z,0.83
2023-10-15T16:59:44.528Z,0.90
2023-10-15T17:02:15.651Z,0.93
2023-10-15T17:04:44.976Z,0.77
2023-10-15T17:07:16.839Z,1.00
2023-10-15T17:09:46.525Z,1.30
2023-10-15T17:12:16.691Z,0.80
2023-10-15T17:14:50.493Z,1.00
2023-10-15T17:17:20.135Z,0.80
2023-10-15T17:19:50.405Z,1.37
2023-10-15T17:22:21.410Z,1.50
2023-10-15T17:24:51.181Z,1.03
2023-10-15T17:27:20.563Z,1.50
2023-10-15T17:30:13.749Z,1.10
2023-10-15T17:32:40.096Z,2.10
2023-10-15T17:35:09.956Z,1.30
2023-10-15T17:37:41.873Z,1.73
2023-10-15T17:40:13.075Z,2.77
2023-10-15T17:42:43.816Z,1.87
2023-10-15T17:45:13.893Z,1.87
2023-10-15T17:47:43.382Z,1.90
2023-10-15T17:50:13.620Z,1.60
2023-10-15T17:52:45.309Z,1.60
2023-10-15T17:55:18.820Z,1.80
2023-10-15T17:57:48.963Z,1.67
2023-10-15T18:00:22.755Z,2.50
2023-10-15T18:02:55.601Z,3.03
2023-10-15T18:05:28.360Z,2.60
2023-10-15T18:08:04.989Z,1.50
2023-10-15T18:10:35.212Z,2.07
2023-10-15T18:13:07.615Z,1.60
2023-10-15T18:15:39.560Z,1.57
2023-10-15T18:18:10.375Z,1.90
2023-10-15T18:20:45.167Z,1.27
2023-10-15T18:23:19.920Z,1.83
2023-10-15T18:25:53.662Z,2.10
2023-10-15T18:28:23.964Z,1.80
2023-10-15T18:30:54.862Z,1.40
2023-10-15T18:33:28.838Z,1.10
2023-10-15T18:35:58.746Z,1.30
2023-10-15T18:38:29.956Z,1.60
2023-10-15T18:40:59.883Z,1.30
2023-10-15T18:43:29.734Z,1.37
2023-10-15T18:45:59.172Z,1.83
2023-10-15T18:48:29.617Z,1.70
2023-10-15T18:51:15.682Z,1.70
2023-10-15T18:53:57.009Z,1.47
2023-10-15T18:56:28.604Z,1.13
2023-10-15T18:59:01.078Z,1.33
2023-10-15T19:01:35.760Z,1.37
2023-10-15T19:04:05.994Z,1.30
2023-10-15T19:06:36.279Z,1.20
2023-10-15T19:09:08.236Z,1.30
2023-10-15T19:11:38.632Z,1.53
2023-10-15T19:14:12.235Z,1.13
2023-10-15T19:16:42.153Z,1.10
2023-10-15T19:19:14.302Z,1.10
2023-10-15T19:21:45.092Z,0.90
2023-10-15T19:24:17.071Z,1.20
2023-10-15T19:26:49.026Z,1.20
2023-10-15T19:29:22.516Z,1.10
2023-10-15T19:31:59.712Z,0.93
2023-10-15T19:34:41.040Z,1.37
2023-10-15T19:37:11.557Z,1.07
2023-10-15T19:39:46.707Z,0.90
2023-10-15T19:42:21.126Z,1.00
2023-10-15T19:44:51.182Z,0.90
2023-10-15T19:47:23.340Z,1.00
2023-10-15T19:50:03.852Z,1.17
2023-10-15T19:52:38.371Z,0.87
2023-10-15T19:55:10.852Z,0.70
2023-10-15T19:57:43.836Z,0.70
2023-10-15T20:00:21.408Z,0.90
2023-10-15T20:02:52.555Z,0.70
2023-10-15T20:05:27.877Z,0.60
2023-10-15T20:07:57.478Z,0.70
2023-10-15T20:10:32.466Z,0.80
2023-10-15T20:13:02.194Z,0.63
2023-10-15T20:15:32.807Z,0.60
2023-10-15T20:18:04.257Z,1.20
2023-10-15T20:20:45.338Z,0.70
2023-10-15T20:23:15.651Z,0.70
2023-10-15T20:25:47.258Z,0.57
2023-10-15T20:28:17.145Z,0.93
2023-10-15T20:30:46.659Z,1.00
2023-10-15T20:33:16.735Z,0.80
2023-10-15T20:35:46.758Z,0.70
2023-10-15T20:38:16.503Z,0.50
2023-10-15T20:40:53.262Z,0.80
2023-10-15T20:43:26.193Z,1.07
2023-10-15T20:45:56.210Z,0.70
2023-10-15T20:48:26.050Z,0.80
2023-10-15T20:50:59.179Z,0.80
2023-10-15T20:53:28.653Z,0.80
2023-10-15T20:56:00.525Z,0.53
2023-10-15T20:58:30.114Z,0.87
2023-10-15T21:00:59.551Z,0.80
2023-10-15T21:03:31.142Z,0.90
2023-10-15T21:06:00.590Z,0.57
2023-10-15T21:08:32.638Z,0.80
2023-10-15T21:11:06.994Z,0.60
2023-10-15T21:13:37.037Z,0.70
2023-10-15T21:16:06.553Z,0.53
2023-10-15T21:18:38.120Z,1.10
2023-10-15T21:21:08.253Z,0.90
2023-10-15T21:23:39.685Z,0.57
2023-10-15T21:26:10.860Z,0.50
2023-10-15T21:28:40.873Z,1.17
2023-10-15T21:31:10.635Z,1.00
2023-10-15T21:33:40.204Z,1.17
2023-10-15T21:36:12.976Z,0.90
2023-10-15T21:38:42.768Z,1.03
2023-10-15T21:41:13.941Z,0.90
2023-10-15T21:43:44.303Z,0.83
2023-10-15T21:46:15.409Z,0.97
2023-10-15T21:48:47.767Z,0.90
2023-10-15T21:51:17.832Z,0.57
2023-10-15T21:53:47.213Z,0.70
2023-10-15T21:56:18.688Z,0.87
2023-10-15T21:58:48.349Z,0.83
2023-10-15T22:01:22.995Z,0.80
2023-10-15T22:03:52.873Z,0.70
2023-10-15T22:06:22.614Z,0.67
2023-10-15T22:08:52.917Z,0.70
2023-10-15T22:11:25.921Z,0.50
2023-10-15T22:14:02.485Z,0.60
2023-10-15T22:16:34.396Z,0.70
2023-10-15T22:19:07.420Z,0.80
2023-10-15T22:21:37.556Z,0.70
2023-10-15T22:24:07.484Z,1.00
2023-10-15T22:26:41.576Z,0.57
2023-10-15T22:29:11.062Z,0.73
2023-10-15T22:31:41.646Z,0.67
2023-10-15T22:34:11.321Z,0.63
2023-10-15T22:36:40.893Z,1.27
2023-10-15T22:39:10.786Z,1.07
2023-10-15T22:41:43.096Z,0.50
2023-10-15T22:44:13.252Z,0.57
2023-10-15T22:46:42.783Z,0.50
2023-10-15T22:49:37.166Z,0.47
2023-10-15T22:52:06.919Z,0.43
2023-10-15T22:54:36.263Z,0.70
2023-10-15T22:57:09.345Z,0.77
2023-10-15T22:59:41.116Z,0.50
2023-10-15T23:02:12.490Z,0.70
2023-10-15T23:04:41.860Z,0.67
2023-10-15T23:07:11.676Z,0.63
2023-10-15T23:09:41.262Z,0.33
2023-10-15T23:12:12.024Z,0.60
2023-10-15T23:14:42.518Z,0.60
2023-10-15T23:17:14.364Z,0.53
2023-10-15T23:19:43.808Z,0.70
2023-10-15T23:22:13.766Z,0.30
2023-10-15T23:24:42.799Z,0.50
2023-10-15T23:27:14.363Z,0.83
2023-10-15T23:29:43.845Z,0.60
2023-10-15T23:32:15.049Z,0.43
2023-10-15T23:34:44.219Z,0.73
2023-10-15T23:37:13.973Z,0.40
2023-10-15T23:39:46.654Z,0.50
2023-10-15T23:42:18.728Z,0.37
2023-10-15T23:44:48.582Z,0.40
2023-10-15T23:47:18.366Z,0.57
2023-10-15T23:49:47.754Z,0.53
2023-10-15T23:52:26.545Z,0.60
2023-10-15T23:55:01.491Z,0.80
2023-10-15T23:57:38.529Z,0.77
